Terminal Aerodrome Forecast
Issued by NWS Quad Cities IA IL

Home | Current Version | Previous Version | Text Only | Print | Product List | Glossary On
Versions: 1 2 3 4 5 6 7 8 9 10 11 12 13 14 15 16 17 18
000
FTUS43 KDVN 250250 AAA
TAFDBQ
TAF AMD
KDBQ 250250Z 2503/2524 18006KT P6SM SCT250
     FM251600 21011KT P6SM SCT040
     FM252000 21013KT P6SM BKN050=

USA.gov is the U.S. government's official web portal to all federal, state and local government web resources and services.